Time;durP1;ratioP1;P1;durP2;ratioP2;P2;SDS_P1;SDS_P2;PMS_P1;PMS_P2;Temp;Humidity;BMP_temperature;BMP_pressure;BME280_temperature;BME280_humidity;BME280_pressure;Samples;Min_cycle;Max_cycle;Signal;HPM_P1;HPM_P2
2023/05/05 00:02:22;;;;;;;10.27;3.70;;;12.50;99.90;;;;;;4974367;28;20046;-83
2023/05/05 00:04:48;;;;;;;7.90;3.33;;;12.50;99.90;;;;;;4974427;28;20467;-84
2023/05/05 00:07:14;;;;;;;7.37;3.30;;;12.50;99.90;;;;;;4974248;28;20058;-84
2023/05/05 00:09:40;;;;;;;13.67;4.07;;;12.50;99.90;;;;;;4974433;28;20046;-83
2023/05/05 00:12:06;;;;;;;7.60;3.13;;;12.50;99.90;;;;;;4974148;28;20058;-84
2023/05/05 00:14:31;;;;;;;13.00;3.10;;;12.50;99.90;;;;;;4975831;28;20687;-84
2023/05/05 00:16:57;;;;;;;9.37;3.30;;;12.50;99.90;;;;;;4977283;28;20093;-84
2023/05/05 00:19:23;;;;;;;6.00;3.27;;;12.50;99.90;;;;;;4977880;28;20404;-82
2023/05/05 00:21:48;;;;;;;6.97;3.53;;;12.50;99.90;;;;;;4977869;28;20483;-83
2023/05/05 00:24:14;;;;;;;6.50;3.00;;;12.50;99.90;;;;;;4976576;28;20065;-83
2023/05/05 00:26:40;;;;;;;9.30;3.50;;;12.50;99.90;;;;;;4978020;28;20052;-83
2023/05/05 00:29:06;;;;;;;11.83;4.33;;;12.50;99.90;;;;;;4977628;28;20386;-83
2023/05/05 00:31:31;;;;;;;11.10;3.60;;;12.50;99.90;;;;;;4977739;28;20043;-83
2023/05/05 00:33:57;;;;;;;7.60;3.63;;;12.40;99.90;;;;;;4977563;28;20459;-83
2023/05/05 00:36:23;;;;;;;7.03;3.63;;;12.50;99.90;;;;;;4960306;28;20101;-82
2023/05/05 00:38:49;;;;;;;7.13;3.40;;;12.50;99.90;;;;;;4944532;28;20097;-83
2023/05/05 00:41:15;;;;;;;9.40;4.00;;;12.40;99.90;;;;;;4977433;28;20298;-84
2023/05/05 00:43:41;;;;;;;6.73;3.20;;;12.40;99.90;;;;;;4977442;28;20051;-83
2023/05/05 00:46:28;;;;;;;8.73;3.70;;;12.40;99.90;;;;;;4976581;28;20484;-84
2023/05/05 00:48:54;;;;;;;7.80;3.37;;;12.40;99.90;;;;;;4976804;28;20043;-84
2023/05/05 00:51:21;;;;;;;6.43;3.40;;;12.40;99.90;;;;;;4976518;28;20638;-83
2023/05/05 00:53:47;;;;;;;8.20;3.47;;;12.40;99.90;;;;;;4976631;28;20360;-84
2023/05/05 00:56:15;;;;;;;11.47;3.90;;;12.40;99.90;;;;;;4960087;28;20293;-83
2023/05/05 00:58:42;;;;;;;8.07;3.60;;;12.30;99.90;;;;;;4977287;28;20282;-83
2023/05/05 01:01:09;;;;;;;11.43;3.60;;;12.30;99.90;;;;;;4976229;28;20342;-83
2023/05/05 01:03:37;;;;;;;7.33;3.47;;;12.30;99.90;;;;;;4975832;28;20782;-83
2023/05/05 01:06:22;;;;;;;10.10;3.63;;;12.20;99.90;;;;;;4960299;28;20298;-83
2023/05/05 01:09:10;;;;;;;7.57;3.20;;;12.20;99.90;;;;;;4976995;28;20286;-83
2023/05/05 01:11:58;;;;;;;8.37;3.80;;;12.20;99.90;;;;;;4977064;28;20110;-83
2023/05/05 01:14:42;;;;;;;8.33;3.10;;;12.20;99.90;;;;;;4977544;28;20373;-82
2023/05/05 01:17:16;;;;;;;7.13;3.70;;;12.10;99.90;;;;;;4976252;28;20353;-83
2023/05/05 01:20:09;;;;;;;11.27;3.37;;;12.10;99.90;;;;;;4976175;28;20313;-84
2023/05/05 01:22:46;;;;;;;7.47;3.50;;;12.10;99.90;;;;;;4977310;28;20306;-84
2023/05/05 01:25:30;;;;;;;7.67;3.47;;;12.10;99.90;;;;;;4975554;28;20286;-84
2023/05/05 01:28:23;;;;;;;7.70;3.57;;;12.10;99.90;;;;;;4976494;28;20313;-83
2023/05/05 01:30:55;;;;;;;7.20;3.40;;;12.00;99.90;;;;;;4975985;28;20301;-83
2023/05/05 01:33:26;;;;;;;7.50;4.30;;;12.00;99.90;;;;;;4975985;28;20634;-84
2023/05/05 01:35:56;;;;;;;6.23;3.40;;;12.00;99.90;;;;;;4975424;28;20416;-84
2023/05/05 01:38:29;;;;;;;9.07;3.80;;;12.00;99.90;;;;;;4975304;28;20417;-84
2023/05/05 01:41:19;;;;;;;7.30;3.70;;;12.00;99.90;;;;;;4976318;28;20357;-84
2023/05/05 01:43:49;;;;;;;10.00;3.37;;;12.00;99.90;;;;;;4976410;28;20360;-83
2023/05/05 01:46:16;;;;;;;7.93;3.80;;;11.90;99.90;;;;;;4975405;28;20348;-83
2023/05/05 01:48:43;;;;;;;9.77;3.57;;;12.00;99.90;;;;;;4976294;28;20758;-83
2023/05/05 01:51:11;;;;;;;8.10;3.20;;;12.00;99.90;;;;;;4975992;28;20793;-83
2023/05/05 01:53:38;;;;;;;7.27;3.70;;;12.00;99.90;;;;;;4976191;28;20286;-83
2023/05/05 01:56:05;;;;;;;5.57;3.13;;;12.00;99.90;;;;;;4974980;28;20801;-83
2023/05/05 01:58:32;;;;;;;7.27;3.40;;;11.90;99.90;;;;;;4976161;28;20286;-83
2023/05/05 02:00:59;;;;;;;8.60;4.03;;;11.90;99.90;;;;;;4975925;28;20766;-83
2023/05/05 02:03:26;;;;;;;13.20;4.63;;;11.90;99.90;;;;;;4974821;28;20302;-83
2023/05/05 02:05:52;;;;;;;15.83;4.57;;;11.90;99.90;;;;;;4976537;28;20321;-83
2023/05/05 02:08:19;;;;;;;8.37;4.03;;;11.80;99.90;;;;;;4975801;28;20334;-83
2023/05/05 02:10:47;;;;;;;8.53;3.17;;;11.90;99.90;;;;;;4975166;28;20290;-83
2023/05/05 02:13:14;;;;;;;6.80;3.43;;;11.90;99.90;;;;;;4975146;28;20286;-85
2023/05/05 02:15:41;;;;;;;10.60;4.63;;;11.90;99.90;;;;;;4975088;28;20294;-85
2023/05/05 02:18:09;;;;;;;9.07;3.67;;;11.80;99.90;;;;;;4974611;28;20294;-85
2023/05/05 02:20:39;;;;;;;8.57;3.53;;;11.80;99.90;;;;;;4975015;28;20302;-84
2023/05/05 02:23:06;;;;;;;10.00;4.53;;;11.80;99.90;;;;;;4975586;28;20294;-86
2023/05/05 02:25:44;;;;;;;9.83;3.67;;;11.80;99.90;;;;;;4975683;28;20294;-83
2023/05/05 02:28:18;;;;;;;7.73;3.70;;;11.80;99.90;;;;;;4975914;28;20294;-84
2023/05/05 02:30:53;;;;;;;6.65;4.00;;;11.80;99.90;;;;;;4974444;28;20329;-84
2023/05/05 02:33:20;;;;;;;8.95;3.65;;;11.80;99.90;;;;;;4975586;28;20089;-84
2023/05/05 02:35:47;;;;;;;8.93;4.37;;;11.80;99.90;;;;;;4973422;28;20380;-84
2023/05/05 02:38:16;;;;;;;8.30;3.50;;;11.80;99.90;;;;;;4975340;28;20337;-84
2023/05/05 02:40:44;;;;;;;8.97;4.20;;;11.80;99.90;;;;;;4974121;28;20377;-84
2023/05/05 02:43:14;;;;;;;8.20;3.60;;;11.80;99.90;;;;;;4974190;28;20310;-84
2023/05/05 02:45:39;;;;;;;6.70;3.77;;;11.80;99.90;;;;;;4975264;28;20289;-83
2023/05/05 02:48:05;;;;;;;8.70;3.70;;;11.80;99.90;;;;;;4975272;28;20282;-84
2023/05/05 02:50:31;;;;;;;9.83;3.80;;;11.70;99.90;;;;;;4975237;28;20051;-83
2023/05/05 02:53:00;;;;;;;8.83;3.60;;;11.70;99.90;;;;;;4975145;28;20057;-84
2023/05/05 02:55:36;;;;;;;9.83;3.50;;;11.70;99.90;;;;;;4974212;28;20718;-84
2023/05/05 02:58:36;;;;;;;6.50;3.83;;;11.70;99.90;;;;;;4974371;28;20337;-84
2023/05/05 03:01:14;;;;;;;10.30;3.60;;;11.70;99.90;;;;;;4975586;28;20321;-84
2023/05/05 03:03:50;;;;;;;6.83;4.67;;;11.70;99.90;;;;;;4974708;28;20631;-83
2023/05/05 03:06:20;;;;;;;8.47;4.17;;;11.70;99.90;;;;;;4974909;28;20294;-84
2023/05/05 03:09:14;;;;;;;8.60;3.73;;;11.70;99.90;;;;;;4975228;28;20282;-84
2023/05/05 03:11:48;;;;;;;9.70;4.13;;;11.70;99.90;;;;;;4975807;28;20287;-83
2023/05/05 03:14:20;;;;;;;8.57;4.10;;;11.70;99.90;;;;;;4973332;28;20845;-83
2023/05/05 03:16:48;;;;;;;8.03;3.97;;;11.70;99.90;;;;;;4974813;28;20286;-84
2023/05/05 03:19:16;;;;;;;10.97;5.03;;;11.80;99.90;;;;;;4973872;28;20294;-84
2023/05/05 03:21:43;;;;;;;8.70;4.00;;;11.80;99.90;;;;;;4975291;28;20286;-83
2023/05/05 03:24:16;;;;;;;9.83;4.00;;;11.80;99.90;;;;;;4973455;28;20314;-83
2023/05/05 03:26:43;;;;;;;7.57;4.03;;;11.80;99.90;;;;;;4975226;28;20291;-83
2023/05/05 03:29:09;;;;;;;7.03;3.90;;;11.80;99.90;;;;;;4974185;28;20286;-84
2023/05/05 03:31:35;;;;;;;7.23;4.23;;;11.80;99.90;;;;;;4973771;28;20630;-84
2023/05/05 03:34:01;;;;;;;9.17;4.37;;;11.80;99.90;;;;;;4974638;28;20122;-84
2023/05/05 03:36:26;;;;;;;8.07;4.27;;;11.80;99.90;;;;;;4973338;28;20480;-84
2023/05/05 03:38:52;;;;;;;9.90;5.23;;;11.80;99.90;;;;;;4973656;28;20300;-84
2023/05/05 03:41:20;;;;;;;7.70;4.53;;;11.80;99.90;;;;;;4975178;28;20086;-84
2023/05/05 03:43:46;;;;;;;14.57;5.27;;;11.80;99.90;;;;;;4957973;28;20047;-82
2023/05/05 03:46:12;;;;;;;9.93;4.93;;;11.80;99.90;;;;;;4973479;28;20686;-84
2023/05/05 03:48:37;;;;;;;10.00;5.67;;;11.80;99.90;;;;;;4976471;28;20403;-83
2023/05/05 03:51:03;;;;;;;10.83;5.50;;;11.80;99.90;;;;;;4977192;28;20105;-82
2023/05/05 03:53:30;;;;;;;10.33;5.00;;;11.80;99.90;;;;;;4977433;28;20495;-82
2023/05/05 03:55:55;;;;;;;11.17;6.20;;;11.70;99.90;;;;;;4977302;28;20086;-82
2023/05/05 03:58:21;;;;;;;8.60;4.93;;;11.70;99.90;;;;;;4977829;28;20321;-81
2023/05/05 04:00:47;;;;;;;11.30;5.60;;;11.60;99.90;;;;;;4978358;28;20053;-82
2023/05/05 04:03:12;;;;;;;12.57;6.00;;;11.50;99.90;;;;;;4977694;28;20043;-82
2023/05/05 04:05:38;;;;;;;9.47;5.47;;;11.50;99.90;;;;;;4978718;28;20066;-81
2023/05/05 04:08:04;;;;;;;9.17;4.93;;;11.40;99.90;;;;;;4961105;28;20059;-82
2023/05/05 04:10:30;;;;;;;11.70;5.50;;;11.50;99.90;;;;;;4977453;28;20051;-81
2023/05/05 04:12:56;;;;;;;10.53;5.90;;;11.40;99.90;;;;;;4978139;28;20394;-81
2023/05/05 04:15:21;;;;;;;9.90;5.87;;;11.40;99.90;;;;;;4977868;28;20050;-80
2023/05/05 04:17:47;;;;;;;11.47;6.27;;;11.40;99.90;;;;;;4977929;28;20126;-82
2023/05/05 04:20:13;;;;;;;12.30;6.83;;;11.40;99.90;;;;;;4976725;28;20058;-78
2023/05/05 04:22:39;;;;;;;12.70;7.00;;;11.30;99.90;;;;;;4978351;28;20042;-79
2023/05/05 04:25:05;;;;;;;9.17;6.23;;;11.30;99.90;;;;;;4977860;28;20479;-80
2023/05/05 04:27:31;;;;;;;10.77;7.20;;;11.30;99.90;;;;;;4977856;28;20130;-80
2023/05/05 04:29:57;;;;;;;13.43;7.10;;;11.20;99.90;;;;;;4976775;28;20833;-81
2023/05/05 04:32:22;;;;;;;10.67;7.03;;;11.10;99.90;;;;;;4977826;28;20053;-81
2023/05/05 04:34:48;;;;;;;13.83;6.63;;;11.10;99.90;;;;;;4977756;28;20130;-81
2023/05/05 04:37:14;;;;;;;9.27;5.80;;;11.10;99.90;;;;;;4976395;28;20059;-81
2023/05/05 04:39:40;;;;;;;10.63;6.53;;;11.00;99.90;;;;;;4976582;28;20057;-82
2023/05/05 04:42:07;;;;;;;13.27;6.73;;;11.00;99.90;;;;;;4960363;28;20502;-82
2023/05/05 04:44:33;;;;;;;11.17;6.80;;;11.00;99.90;;;;;;4977965;28;20766;-82
2023/05/05 04:46:59;;;;;;;9.50;6.07;;;11.00;99.90;;;;;;4976647;28;20309;-83
2023/05/05 04:49:27;;;;;;;11.03;6.57;;;10.90;99.90;;;;;;4978114;28;20376;-83
2023/05/05 04:51:53;;;;;;;11.43;7.30;;;10.90;99.90;;;;;;4976518;28;20376;-84
2023/05/05 04:54:19;;;;;;;12.93;7.03;;;10.90;99.90;;;;;;4977501;28;20373;-83
2023/05/05 04:56:45;;;;;;;10.33;6.40;;;11.00;99.90;;;;;;4976517;28;20613;-83
2023/05/05 04:59:11;;;;;;;14.30;7.47;;;10.90;99.90;;;;;;4959949;28;20485;-83
2023/05/05 05:01:36;;;;;;;11.80;6.60;;;10.90;99.90;;;;;;4960279;28;20376;-82
2023/05/05 05:04:03;;;;;;;8.93;5.63;;;10.90;99.90;;;;;;4976069;28;20090;-83
2023/05/05 05:06:29;;;;;;;14.17;6.70;;;10.90;99.90;;;;;;4960954;28;20096;-83
2023/05/05 05:08:55;;;;;;;8.70;5.90;;;10.80;99.90;;;;;;4960170;28;20330;-83
2023/05/05 05:11:21;;;;;;;10.90;6.30;;;10.80;99.90;;;;;;4976996;28;20047;-83
2023/05/05 05:13:46;;;;;;;8.37;6.80;;;10.80;99.90;;;;;;4976317;28;20097;-83
2023/05/05 05:16:12;;;;;;;8.47;6.87;;;10.80;99.90;;;;;;4975975;28;20367;-83
2023/05/05 05:18:38;;;;;;;9.53;6.43;;;10.90;99.90;;;;;;4976983;28;20054;-82
2023/05/05 05:21:04;;;;;;;11.23;7.17;;;10.90;99.90;;;;;;4975960;28;20047;-82
2023/05/05 05:23:30;;;;;;;11.77;6.93;;;11.00;99.90;;;;;;4976499;28;20098;-82
2023/05/05 05:25:56;;;;;;;12.57;7.07;;;11.00;99.90;;;;;;4976875;28;20042;-82
2023/05/05 05:28:21;;;;;;;11.73;7.33;;;11.10;99.90;;;;;;4975867;28;20047;-83
2023/05/05 05:30:47;;;;;;;10.37;6.77;;;11.20;99.90;;;;;;4976436;28;20291;-83
2023/05/05 05:33:13;;;;;;;11.43;7.03;;;11.20;99.90;;;;;;4975692;28;20053;-83
2023/05/05 05:35:39;;;;;;;13.63;7.37;;;11.30;99.90;;;;;;4975310;28;20403;-83
2023/05/05 05:38:05;;;;;;;13.77;7.00;;;11.30;99.90;;;;;;4975954;28;20054;-84
2023/05/05 05:40:31;;;;;;;12.00;7.47;;;11.30;99.90;;;;;;4975872;28;20502;-84
2023/05/05 05:42:57;;;;;;;13.73;7.37;;;11.30;99.90;;;;;;4975109;28;20129;-83
2023/05/05 05:45:22;;;;;;;11.07;7.47;;;11.30;99.90;;;;;;4976289;28;20047;-83
2023/05/05 05:47:48;;;;;;;10.93;7.00;;;11.30;99.90;;;;;;4976999;28;20057;-83
2023/05/05 05:50:14;;;;;;;11.07;7.10;;;11.30;99.90;;;;;;4975348;28;20043;-84
2023/05/05 05:52:40;;;;;;;11.30;8.03;;;11.30;99.90;;;;;;4975640;28;20058;-84
2023/05/05 05:55:06;;;;;;;10.30;7.30;;;11.40;99.90;;;;;;4975292;28;20046;-84
2023/05/05 05:57:32;;;;;;;10.83;8.07;;;11.50;99.90;;;;;;4958979;28;20051;-85
2023/05/05 05:59:58;;;;;;;12.13;7.87;;;11.70;99.90;;;;;;4975393;28;20817;-85
2023/05/05 06:02:25;;;;;;;9.27;7.43;;;12.10;99.90;;;;;;4974812;28;20110;-86
2023/05/05 06:04:51;;;;;;;11.93;7.67;;;12.70;99.90;;;;;;4975437;28;20043;-85
2023/05/05 06:07:17;;;;;;;13.63;7.30;;;13.00;99.90;;;;;;4975160;28;20294;-85
2023/05/05 06:09:42;;;;;;;11.47;7.20;;;13.20;99.90;;;;;;4976088;28;20290;-86
2023/05/05 06:12:08;;;;;;;11.07;6.83;;;13.60;99.90;;;;;;4976267;28;20046;-86
2023/05/05 06:14:34;;;;;;;9.13;6.80;;;13.50;99.90;;;;;;4974969;28;20052;-86
2023/05/05 06:17:00;;;;;;;10.70;6.53;;;13.30;99.90;;;;;;4974936;28;20050;-86
2023/05/05 06:19:26;;;;;;;9.67;6.53;;;13.80;99.90;;;;;;4942624;28;20792;-86
2023/05/05 06:21:51;;;;;;;9.30;6.17;;;15.10;99.90;;;;;;4974810;28;20054;-86
2023/05/05 06:24:17;;;;;;;12.30;6.80;;;16.50;99.90;;;;;;4974075;28;20047;-86
2023/05/05 06:26:43;;;;;;;9.37;6.17;;;17.80;99.90;;;;;;4958873;28;20146;-86
2023/05/05 06:29:09;;;;;;;10.77;6.07;;;18.90;99.90;;;;;;4974550;28;20134;-86
2023/05/05 06:31:35;;;;;;;7.40;4.63;;;19.80;99.90;;;;;;4975265;28;20529;-86
2023/05/05 06:34:00;;;;;;;9.57;5.93;;;20.40;99.90;;;;;;4975680;28;20521;-86
2023/05/05 06:36:26;;;;;;;9.47;6.03;;;20.80;99.90;;;;;;4973876;28;20090;-86
2023/05/05 06:38:52;;;;;;;9.63;5.90;;;21.30;99.90;;;;;;4975362;28;20065;-86
2023/05/05 06:41:18;;;;;;;9.80;5.63;;;21.70;99.90;;;;;;4975380;28;20054;-87
2023/05/05 06:43:44;;;;;;;8.40;5.60;;;22.10;99.90;;;;;;4975212;28;20129;-86
2023/05/05 06:46:10;;;;;;;7.83;5.17;;;22.50;92.60;;;;;;4975056;28;20074;-85
2023/05/05 06:48:35;;;;;;;8.50;5.47;;;22.80;94.60;;;;;;4974966;28;20491;-86
2023/05/05 06:51:01;;;;;;;9.53;5.50;;;23.20;93.40;;;;;;4974950;28;20054;-86
2023/05/05 06:53:27;;;;;;;8.17;5.50;;;23.20;88.90;;;;;;4974941;28;20079;-87
2023/05/05 06:55:53;;;;;;;7.97;4.80;;;23.50;82.80;;;;;;4974178;28;20050;-86
2023/05/05 06:58:20;;;;;;;10.07;5.90;;;23.90;83.70;;;;;;4974860;28;20053;-87
2023/05/05 07:00:46;;;;;;;9.10;5.07;;;24.20;74.60;;;;;;4975053;28;20054;-87
2023/05/05 07:03:12;;;;;;;8.97;4.87;;;24.30;69.40;;;;;;4974611;28;20047;-87
2023/05/05 07:05:37;;;;;;;11.57;6.20;;;24.70;66.40;;;;;;4974042;28;20086;-88
2023/05/05 07:08:03;;;;;;;9.67;5.40;;;25.00;62.70;;;;;;4975499;28;20125;-87
2023/05/05 07:10:30;;;;;;;8.73;5.87;;;25.10;61.10;;;;;;4973980;28;20055;-88
2023/05/05 07:12:56;;;;;;;11.13;5.60;;;25.20;58.60;;;;;;4958080;28;20058;-85
2023/05/05 07:15:22;;;;;;;8.40;4.97;;;25.40;58.60;;;;;;4974824;28;20130;-87
2023/05/05 07:17:48;;;;;;;10.93;5.33;;;25.30;56.00;;;;;;4974854;28;20059;-88
2023/05/05 07:20:15;;;;;;;7.13;5.17;;;25.60;56.20;;;;;;4974556;28;20111;-87
2023/05/05 07:22:41;;;;;;;7.43;5.20;;;25.60;55.60;;;;;;4974352;28;20042;-86
2023/05/05 07:25:07;;;;;;;9.93;5.50;;;25.70;55.20;;;;;;4974455;28;20093;-86
2023/05/05 07:27:34;;;;;;;8.20;5.70;;;26.10;55.60;;;;;;4974271;28;20365;-83
2023/05/05 07:30:00;;;;;;;8.47;5.13;;;26.10;53.90;;;;;;4974222;28;20570;-83
2023/05/05 07:32:26;;;;;;;11.27;5.47;;;26.20;54.10;;;;;;4974655;28;20090;-84
2023/05/05 07:34:52;;;;;;;8.20;5.33;;;25.90;53.50;;;;;;4975178;28;20089;-84
2023/05/05 07:37:17;;;;;;;7.37;5.30;;;24.70;53.30;;;;;;4974735;28;20205;-84
2023/05/05 07:39:43;;;;;;;9.50;5.07;;;24.10;55.20;;;;;;4973919;28;20055;-84
2023/05/05 07:42:09;;;;;;;8.17;5.80;;;23.10;57.10;;;;;;4974491;28;20043;-82
2023/05/05 07:44:35;;;;;;;9.77;6.83;;;22.50;60.00;;;;;;4974833;28;20181;-83
2023/05/05 07:47:01;;;;;;;10.00;6.33;;;21.70;63.00;;;;;;4974469;28;20043;-82
2023/05/05 07:49:26;;;;;;;11.23;6.70;;;21.10;67.80;;;;;;4974557;28;20047;-86
2023/05/05 07:51:53;;;;;;;9.90;6.53;;;20.50;75.20;;;;;;4974387;28;20047;-85
2023/05/05 07:54:19;;;;;;;9.73;6.73;;;20.10;85.60;;;;;;4974516;28;20043;-84
2023/05/05 07:56:45;;;;;;;10.43;7.20;;;20.30;91.70;;;;;;4974758;28;20070;-86
2023/05/05 07:59:11;;;;;;;8.73;6.80;;;20.90;91.10;;;;;;4974485;28;20042;-85
2023/05/05 08:01:38;;;;;;;10.90;6.70;;;20.90;89.30;;;;;;4974455;28;20039;-85
2023/05/05 08:04:04;;;;;;;9.23;7.07;;;20.80;90.00;;;;;;4974045;28;20479;-86
2023/05/05 08:06:30;;;;;;;10.97;7.30;;;20.60;91.10;;;;;;4974327;28;20133;-86
2023/05/05 08:08:59;;;;;;;8.93;7.67;;;20.80;92.90;;;;;;4974322;28;20050;-81
2023/05/05 08:11:25;;;;;;;11.07;8.20;;;20.80;93.30;;;;;;4974805;28;20051;-85
2023/05/05 08:13:50;;;;;;;9.47;7.27;;;20.80;93.30;;;;;;4973545;28;20050;-83
2023/05/05 08:16:17;;;;;;;9.63;7.33;;;20.50;93.60;;;;;;4973332;28;20046;-84
2023/05/05 08:18:43;;;;;;;12.23;7.97;;;20.50;95.90;;;;;;4974233;28;20046;-86
2023/05/05 08:21:10;;;;;;;10.97;8.13;;;20.70;97.00;;;;;;4973068;28;20047;-86
2023/05/05 08:23:36;;;;;;;12.40;8.30;;;20.60;96.60;;;;;;4973788;28;20051;-85
2023/05/05 08:26:05;;;;;;;11.90;7.97;;;20.50;96.60;;;;;;4974487;28;20141;-81
2023/05/05 08:28:31;;;;;;;11.77;8.53;;;20.20;97.60;;;;;;4974226;28;20518;-84
2023/05/05 08:30:57;;;;;;;12.20;8.23;;;20.00;98.60;;;;;;4974744;28;20394;-83
2023/05/05 08:33:23;;;;;;;15.23;9.73;;;19.90;99.90;;;;;;4974618;28;20051;-82
2023/05/05 08:35:49;;;;;;;11.03;8.47;;;20.10;99.90;;;;;;4976771;28;20055;-82
2023/05/05 08:38:15;;;;;;;12.13;9.20;;;20.10;99.90;;;;;;4978317;28;20062;-82
2023/05/05 08:40:41;;;;;;;14.27;11.00;;;20.10;99.90;;;;;;4977453;28;20395;-83
2023/05/05 08:43:07;;;;;;;12.37;9.00;;;20.20;99.90;;;;;;4977443;28;20049;-80
2023/05/05 08:45:33;;;;;;;14.30;11.53;;;20.30;99.90;;;;;;4977101;28;20054;-80
2023/05/05 08:48:03;;;;;;;15.90;10.90;;;20.30;99.90;;;;;;4959772;28;20109;-81
2023/05/05 08:50:30;;;;;;;16.50;11.73;;;20.50;99.90;;;;;;4976059;28;20134;-81
2023/05/05 08:53:09;;;;;;;15.00;12.33;;;20.60;99.90;;;;;;4977266;28;20491;-81
2023/05/05 08:55:43;;;;;;;15.63;13.03;;;20.60;99.90;;;;;;4977230;28;20129;-81
2023/05/05 08:58:09;;;;;;;14.90;12.00;;;20.60;99.90;;;;;;4960949;28;20109;-84
2023/05/05 09:00:35;;;;;;;18.60;13.73;;;20.70;99.90;;;;;;4977407;28;20051;-82
2023/05/05 09:03:02;;;;;;;14.17;11.43;;;20.70;99.90;;;;;;4977087;28;20435;-83
2023/05/05 09:05:27;;;;;;;20.37;13.60;;;20.70;99.90;;;;;;4977037;28;20047;-84
2023/05/05 09:07:53;;;;;;;18.17;13.40;;;20.60;99.90;;;;;;4975681;28;20050;-84
2023/05/05 09:10:19;;;;;;;18.00;14.13;;;20.70;99.90;;;;;;4976917;28;20093;-84
2023/05/05 09:12:45;;;;;;;16.77;12.97;;;20.70;99.90;;;;;;4977658;28;20371;-83
2023/05/05 09:15:13;;;;;;;17.60;13.73;;;20.60;99.90;;;;;;4975603;28;20438;-87
2023/05/05 09:17:40;;;;;;;16.80;12.97;;;20.60;99.90;;;;;;4975573;28;20047;-87
2023/05/05 09:20:08;;;;;;;15.33;12.93;;;20.60;99.90;;;;;;4976824;28;20053;-86
2023/05/05 09:22:42;;;;;;;16.33;12.50;;;20.80;99.90;;;;;;4976525;28;20050;-88
2023/05/05 09:25:10;;;;;;;13.30;11.75;;;20.90;99.90;;;;;;4977302;28;20050;-85
2023/05/05 09:27:41;;;;;;;15.40;12.10;;;21.00;99.90;;;;;;4976578;28;20046;-81
2023/05/05 09:30:11;;;;;;;15.70;11.80;;;21.00;99.90;;;;;;4976636;28;20090;-86
2023/05/05 09:32:53;;;;;;;16.80;13.10;;;20.90;99.90;;;;;;4976181;28;20510;-85
2023/05/05 09:35:21;;;;;;;14.90;11.80;;;21.00;99.90;;;;;;4976439;28;20094;-85
2023/05/05 09:37:46;;;;;;;16.10;12.50;;;21.00;99.90;;;;;;4976707;28;20066;-84
2023/05/05 09:40:14;;;;;;;13.67;11.27;;;21.20;99.90;;;;;;4975455;28;20051;-84
2023/05/05 09:42:40;;;;;;;17.03;12.17;;;21.30;99.90;;;;;;4976254;28;20043;-86
2023/05/05 09:45:18;;;;;;;14.00;11.53;;;21.30;99.90;;;;;;4976269;28;20395;-85
2023/05/05 09:47:47;;;;;;;13.43;11.03;;;21.40;99.90;;;;;;4976631;28;20062;-85
2023/05/05 09:50:17;;;;;;;14.33;10.67;;;21.40;99.90;;;;;;4976220;28;20053;-86
2023/05/05 09:52:56;;;;;;;15.63;12.67;;;21.40;99.90;;;;;;4976252;28;20086;-83
2023/05/05 09:55:23;;;;;;;15.67;13.10;;;21.40;99.90;;;;;;4976747;28;20129;-79
2023/05/05 09:57:49;;;;;;;15.93;12.23;;;21.20;99.90;;;;;;4976019;28;20561;-82
2023/05/05 10:00:14;;;;;;;16.70;13.23;;;21.10;99.90;;;;;;4974965;28;20142;-80
2023/05/05 10:02:40;;;;;;;17.53;13.37;;;21.00;99.90;;;;;;4975763;28;20051;-80
2023/05/05 10:05:15;;;;;;;15.07;11.73;;;20.90;99.90;;;;;;4976003;28;20487;-80
2023/05/05 10:07:43;;;;;;;15.63;12.48;;;20.90;99.90;;;;;;4975940;28;20054;-81
2023/05/05 10:10:13;;;;;;;14.33;12.73;;;20.90;99.90;;;;;;4976199;28;20058;-81
2023/05/05 10:12:40;;;;;;;15.60;13.07;;;20.80;99.90;;;;;;4976155;28;20049;-80
2023/05/05 10:15:10;;;;;;;17.00;12.50;;;20.70;99.90;;;;;;4975818;28;20049;-81
2023/05/05 10:17:44;;;;;;;15.90;12.17;;;20.60;99.90;;;;;;4975771;28;20396;-80
2023/05/05 10:20:12;;;;;;;14.90;9.93;;;20.50;99.90;;;;;;4976308;28;20051;-81
2023/05/05 10:22:42;;;;;;;13.47;9.90;;;20.40;99.90;;;;;;4975939;28;20090;-84
2023/05/05 10:25:13;;;;;;;14.87;9.47;;;20.40;99.90;;;;;;4975331;28;20047;-85
2023/05/05 10:27:43;;;;;;;12.20;8.83;;;20.30;99.90;;;;;;4975246;28;20535;-80
2023/05/05 10:30:16;;;;;;;13.77;8.20;;;20.30;99.90;;;;;;4975581;28;20058;-83
2023/05/05 10:32:52;;;;;;;13.37;8.30;;;20.40;99.90;;;;;;4976006;28;20043;-83
2023/05/05 10:35:23;;;;;;;12.07;8.53;;;20.50;99.90;;;;;;4976182;28;20046;-82
2023/05/05 10:37:51;;;;;;;12.27;8.27;;;20.60;99.90;;;;;;4975877;28;20063;-83
2023/05/05 10:40:16;;;;;;;12.03;9.10;;;20.60;99.90;;;;;;4975850;28;20047;-82
2023/05/05 10:42:42;;;;;;;15.53;10.10;;;20.70;99.90;;;;;;4975197;28;20097;-81
2023/05/05 10:45:08;;;;;;;13.43;10.23;;;20.70;99.90;;;;;;4975201;28;20448;-83
2023/05/05 10:47:36;;;;;;;11.83;10.00;;;20.80;99.90;;;;;;4975076;28;20043;-81
2023/05/05 10:50:15;;;;;;;15.93;10.03;;;20.70;99.90;;;;;;4975706;28;20053;-83
2023/05/05 10:52:44;;;;;;;14.37;9.50;;;20.70;99.90;;;;;;4974742;28;20521;-84
2023/05/05 10:55:17;;;;;;;11.97;7.90;;;20.70;99.90;;;;;;4975849;28;20078;-82
2023/05/05 10:57:45;;;;;;;9.43;6.07;;;20.70;99.90;;;;;;4974337;28;20050;-83
2023/05/05 11:00:51;;;;;;;9.93;6.50;;;20.70;99.90;;;;;;4975257;28;20051;-82
2023/05/05 11:03:17;;;;;;;10.87;7.50;;;20.60;99.90;;;;;;4973260;28;20055;-88
2023/05/05 11:06:06;;;;;;;11.03;7.83;;;20.50;99.90;;;;;;4975440;28;20046;-85
2023/05/05 11:08:37;;;;;;;11.03;7.80;;;20.50;99.90;;;;;;4974870;28;20491;-85
2023/05/05 11:11:03;;;;;;;11.90;7.77;;;20.60;99.90;;;;;;4974857;28;20097;-84
2023/05/05 11:13:30;;;;;;;9.27;6.20;;;20.60;99.90;;;;;;4974537;28;20054;-85
2023/05/05 11:15:57;;;;;;;9.90;6.27;;;20.60;99.90;;;;;;4973271;28;20043;-84
2023/05/05 11:18:37;;;;;;;9.37;6.03;;;20.60;99.90;;;;;;4974447;28;20464;-85
2023/05/05 11:21:14;;;;;;;8.73;6.23;;;20.60;99.90;;;;;;4973684;28;20157;-84
2023/05/05 11:23:48;;;;;;;8.67;6.73;;;20.70;99.90;;;;;;4974837;28;20039;-84
2023/05/05 11:26:15;;;;;;;9.73;6.43;;;20.70;99.90;;;;;;4974589;28;20050;-85
2023/05/05 11:29:00;;;;;;;11.43;6.60;;;20.80;99.90;;;;;;4974647;28;20047;-85
2023/05/05 11:31:28;;;;;;;12.03;6.90;;;20.80;99.90;;;;;;4974668;28;20057;-85
2023/05/05 11:33:53;;;;;;;9.57;6.80;;;20.80;99.90;;;;;;4974581;28;20117;-85
2023/05/05 11:36:36;;;;;;;10.40;6.63;;;20.90;99.90;;;;;;4974529;28;20582;-85
2023/05/05 11:39:30;;;;;;;8.60;6.60;;;20.90;99.90;;;;;;4974559;28;20061;-85
2023/05/05 11:42:23;;;;;;;12.37;7.10;;;21.00;99.90;;;;;;4974401;28;20510;-84
2023/05/05 11:44:50;;;;;;;10.23;6.80;;;21.00;99.90;;;;;;4974218;28;20758;-84
2023/05/05 11:47:15;;;;;;;11.63;8.10;;;20.90;99.90;;;;;;4975060;28;20082;-84
2023/05/05 11:49:41;;;;;;;11.17;7.70;;;20.90;99.90;;;;;;4975080;28;20113;-85
2023/05/05 11:52:08;;;;;;;12.63;8.73;;;20.90;99.90;;;;;;4974203;28;20042;-85
2023/05/05 11:54:36;;;;;;;10.13;8.37;;;20.80;99.90;;;;;;4974485;28;20405;-85
2023/05/05 11:57:07;;;;;;;12.67;8.80;;;20.70;99.90;;;;;;4974427;28;20086;-84
2023/05/05 11:59:36;;;;;;;10.77;8.70;;;20.80;99.90;;;;;;4973477;28;20105;-85
2023/05/05 12:02:02;;;;;;;11.27;8.07;;;20.70;99.90;;;;;;4974395;28;20082;-85
2023/05/05 12:04:30;;;;;;;11.87;8.77;;;20.60;99.90;;;;;;4974354;28;20079;-85
2023/05/05 12:06:57;;;;;;;9.73;6.30;;;20.50;99.90;;;;;;4973145;28;20129;-84
2023/05/05 12:09:23;;;;;;;9.17;5.60;;;20.40;99.90;;;;;;4975557;28;20047;-84
2023/05/05 12:11:53;;;;;;;8.43;5.97;;;20.30;99.90;;;;;;4978151;28;20050;-85
2023/05/05 12:14:19;;;;;;;8.23;5.83;;;20.20;99.90;;;;;;4978024;28;20082;-85
2023/05/05 12:16:55;;;;;;;7.97;5.47;;;20.10;99.90;;;;;;4978521;28;20097;-85
2023/05/05 12:19:21;;;;;;;7.43;4.80;;;20.00;99.90;;;;;;4978027;28;20053;-85
2023/05/05 12:21:47;;;;;;;9.50;6.00;;;19.90;99.90;;;;;;4977909;28;20051;-85
2023/05/05 12:24:13;;;;;;;8.87;5.33;;;19.80;99.90;;;;;;4977806;28;20058;-85
2023/05/05 12:26:38;;;;;;;9.87;4.90;;;19.60;99.90;;;;;;4978369;28;20047;-85
2023/05/05 12:29:04;;;;;;;8.33;4.97;;;19.50;99.90;;;;;;4977736;28;20051;-85
2023/05/05 12:31:38;;;;;;;9.60;5.60;;;19.40;99.90;;;;;;4977511;28;20047;-85
2023/05/05 12:34:05;;;;;;;6.83;5.07;;;19.30;99.90;;;;;;4976588;28;20046;-84
2023/05/05 12:36:32;;;;;;;6.60;5.30;;;19.20;99.90;;;;;;4977542;28;20090;-84
2023/05/05 12:38:58;;;;;;;8.07;5.30;;;19.20;99.90;;;;;;4977510;28;20134;-86
2023/05/05 12:41:24;;;;;;;10.23;6.00;;;19.10;99.90;;;;;;4977605;28;20086;-84
2023/05/05 12:43:57;;;;;;;9.03;6.67;;;19.00;99.90;;;;;;4977633;28;20047;-84
2023/05/05 12:46:24;;;;;;;10.43;6.70;;;18.90;99.90;;;;;;4977496;28;20050;-81
2023/05/05 12:49:03;;;;;;;10.80;7.17;;;18.90;99.90;;;;;;4976169;28;20043;-83